Time;durP1;ratioP1;P1;durP2;ratioP2;P2;SDS_P1;SDS_P2;PMS_P1;PMS_P2;Temp;Humidity;BMP_temperature;BMP_pressure;BME280_temperature;BME280_humidity;BME280_pressure;Samples;Min_cycle;Max_cycle;Signal;HPM_P1;HPM_P2
2023/10/14 00:01:10;;;;;;;17.37;8.33;;;;;;;-144.30;56.63;85249.34;5090048;28;20204;-58
2023/10/14 00:03:41;;;;;;;13.33;7.87;;;;;;;-144.30;57.05;85253.31;5089717;28;20227;-59
2023/10/14 00:06:11;;;;;;;17.03;7.47;;;;;;;-144.30;57.07;85275.16;5089998;28;20219;-58
2023/10/14 00:08:47;;;;;;;13.80;7.33;;;;;;;-144.30;56.82;85271.19;5089873;28;20203;-59
2023/10/14 00:11:15;;;;;;;13.23;6.40;;;;;;;-144.30;57.02;85269.22;5090285;28;20249;-58
2023/10/14 00:13:43;;;;;;;15.63;7.13;;;;;;;-144.30;56.69;85273.19;5089865;28;20219;-58
2023/10/14 00:16:21;;;;;;;13.60;6.77;;;;;;;-144.30;56.65;85869.59;5089812;28;20231;-58
2023/10/14 00:18:49;;;;;;;13.10;7.47;;;;;;;-144.30;57.00;85287.09;5089996;28;20729;-58
2023/10/14 00:21:18;;;;;;;13.70;7.40;;;;;;;-144.30;56.65;85277.16;5090026;28;20195;-59
2023/10/14 00:23:44;;;;;;;12.83;7.90;;;;;;;-144.30;56.75;85305.00;5089795;28;20202;-59
2023/10/14 00:26:20;;;;;;;13.00;6.37;;;;;;;-144.30;56.98;85285.09;5089848;28;20229;-58
2023/10/14 00:28:54;;;;;;;12.27;7.57;;;;;;;-144.30;57.18;85285.09;5089684;28;20197;-58
2023/10/14 00:31:21;;;;;;;12.53;7.60;;;;;;;-144.30;57.15;85249.34;5089494;28;20195;-58
2023/10/14 00:33:48;;;;;;;11.13;6.60;;;;;;;-144.30;57.27;85308.97;5090238;28;20195;-58
2023/10/14 00:36:16;;;;;;;13.83;6.70;;;;;;;-144.30;57.28;85297.03;5089879;28;20202;-58
2023/10/14 00:38:45;;;;;;;7.20;5.97;;;;;;;-144.30;57.65;85289.09;5089775;28;20588;-58
2023/10/14 00:41:12;;;;;;;9.43;6.30;;;;;;;-144.30;57.61;85340.78;5089720;28;20207;-58
2023/10/14 00:43:40;;;;;;;7.33;6.13;;;;;;;-144.30;57.91;85326.84;5089560;28;20260;-59
2023/10/14 00:46:16;;;;;;;10.97;5.43;;;;;;;-144.30;57.81;85328.84;5089901;28;20203;-58
2023/10/14 00:48:46;;;;;;;5.67;5.17;;;;;;;-144.30;58.19;85348.72;5089603;28;20194;-59
2023/10/14 00:51:14;;;;;;;8.03;5.53;;;;;;;-144.30;58.36;85326.84;5089807;28;20192;-59
2023/10/14 00:53:52;;;;;;;10.13;5.60;;;;;;;-144.30;58.52;85336.78;5089515;28;20206;-59
2023/10/14 00:56:20;;;;;;;7.80;5.27;;;;;;;-144.30;58.92;85358.66;5089707;28;20286;-59
2023/10/14 00:58:51;;;;;;;5.40;4.90;;;;;;;-144.30;58.79;85348.72;5089602;28;20199;-58
2023/10/14 01:01:18;;;;;;;8.87;5.03;;;;;;;-144.30;59.03;85368.59;5090144;28;20278;-59
2023/10/14 01:03:50;;;;;;;7.47;6.20;;;;;;;-144.30;58.91;85362.63;5089203;28;20241;-59
2023/10/14 01:06:23;;;;;;;12.23;5.70;;;;;;;-144.30;59.69;85378.53;5089472;28;20230;-58
2023/10/14 01:08:53;;;;;;;5.90;5.40;;;;;;;-144.30;59.46;85352.69;5089437;28;20207;-56
2023/10/14 01:11:24;;;;;;;12.30;5.70;;;;;;;-144.30;59.60;85366.63;5092233;28;20705;-56
2023/10/14 01:13:51;;;;;;;11.07;5.67;;;;;;;-144.30;60.00;85352.69;5093315;28;20592;-58
2023/10/14 01:16:24;;;;;;;8.43;5.97;;;;;;;-144.30;59.99;85364.63;5093054;28;20196;-60
2023/10/14 01:18:51;;;;;;;8.30;5.77;;;;;;;-144.30;59.94;85368.59;5093278;28;20199;-59
2023/10/14 01:21:19;;;;;;;11.77;5.50;;;;;;;-144.30;60.17;85374.56;5092837;28;20667;-59
2023/10/14 01:23:58;;;;;;;6.30;5.67;;;;;;;-144.30;60.04;85394.44;5093146;28;20211;-58
2023/10/14 01:26:24;;;;;;;5.67;5.00;;;;;;;-144.30;59.97;85376.56;5093000;28;20230;-59
2023/10/14 01:28:58;;;;;;;6.80;5.30;;;;;;;-144.30;59.39;85352.69;5092875;28;20206;-59
2023/10/14 01:31:57;;;;;;;9.40;5.43;;;;;;;-144.30;59.20;85384.50;5092851;28;20198;-59
2023/10/14 01:34:28;;;;;;;8.73;5.40;;;;;;;-144.30;59.25;85382.53;5092818;28;20205;-58
2023/10/14 01:37:00;;;;;;;9.43;5.60;;;;;;;-144.30;59.26;85346.72;5092876;28;20203;-56
2023/10/14 01:39:29;;;;;;;7.57;5.10;;;;;;;-144.30;59.05;85356.69;5092660;28;20286;-55
2023/10/14 01:41:57;;;;;;;9.10;5.77;;;;;;;-144.30;59.32;85400.41;5092746;28;20269;-56
2023/10/14 01:44:25;;;;;;;7.57;4.90;;;;;;;-144.30;59.49;85384.50;5092507;28;20195;-57
2023/10/14 01:46:55;;;;;;;7.03;5.43;;;;;;;-144.30;59.39;85396.44;5092635;28;20307;-56
2023/10/14 01:49:27;;;;;;;11.87;5.60;;;;;;;-144.30;59.80;85408.34;5092797;28;20283;-59
2023/10/14 01:51:56;;;;;;;8.17;5.23;;;;;;;-144.30;59.52;85406.38;5092533;28;20192;-59
2023/10/14 01:54:23;;;;;;;7.40;4.93;;;;;;;-144.30;59.47;85430.22;5092434;28;20667;-56
2023/10/14 01:56:54;;;;;;;6.13;5.20;;;;;;;-144.30;59.20;85404.38;5092031;28;20686;-56
2023/10/14 01:59:23;;;;;;;6.90;5.13;;;;;;;-144.30;59.35;85149.94;5092305;28;20203;-56
2023/10/14 02:01:50;;;;;;;11.17;5.87;;;;;;;-144.30;59.41;85370.59;5092195;28;20195;-56
2023/10/14 02:04:17;;;;;;;8.50;5.83;;;;;;;-144.30;59.66;85424.25;5092050;28;20227;-56
2023/10/14 02:06:47;;;;;;;10.20;5.63;;;;;;;-144.30;59.79;85394.44;5092151;28;20191;-59
2023/10/14 02:09:17;;;;;;;10.13;5.67;;;;;;;-144.30;60.60;85412.34;5092152;28;20234;-60
2023/10/14 02:11:47;;;;;;;12.03;5.80;;;;;;;-144.30;60.88;85400.41;5092170;28;20695;-59
2023/10/14 02:14:22;;;;;;;6.47;5.67;;;;;;;-144.30;61.25;85479.94;5091924;28;20230;-59
2023/10/14 02:16:49;;;;;;;8.90;5.30;;;;;;;-144.30;61.35;85418.31;5091995;28;20309;-60
2023/10/14 02:19:21;;;;;;;13.77;5.10;;;;;;;-144.30;61.84;85460.03;5092099;28;20191;-60
2023/10/14 02:21:57;;;;;;;9.33;5.80;;;;;;;-144.30;62.10;85485.88;5091894;28;20195;-60
2023/10/14 02:24:27;;;;;;;10.23;6.17;;;;;;;-144.30;62.60;85444.16;5091882;28;20242;-60
2023/10/14 02:26:56;;;;;;;9.30;5.63;;;;;;;-144.30;62.31;85473.97;5091960;28;20253;-59
2023/10/14 02:29:26;;;;;;;7.50;5.67;;;;;;;-144.30;62.61;85452.09;5091855;28;20590;-60
2023/10/14 02:31:52;;;;;;;7.10;6.17;;;;;;;-144.30;63.09;85466.00;5091667;28;20227;-58
2023/10/14 02:34:19;;;;;;;7.53;6.40;;;;;;;-144.30;63.18;85479.94;5091472;28;20238;-58
2023/10/14 02:36:49;;;;;;;10.20;6.07;;;;;;;-144.30;63.53;85483.91;5091414;28;20219;-58
2023/10/14 02:39:17;;;;;;;8.83;5.97;;;;;;;-144.30;63.44;85356.69;5091873;28;20253;-58
2023/10/14 02:41:58;;;;;;;7.37;5.67;;;;;;;-144.30;63.70;85519.69;5091386;28;20228;-59
2023/10/14 02:44:30;;;;;;;6.87;6.20;;;;;;;-144.30;64.21;85523.66;5091328;28;20286;-59
2023/10/14 02:47:03;;;;;;;15.83;6.47;;;;;;;-144.30;64.24;85511.75;5087163;28;20637;-58
2023/10/14 02:49:35;;;;;;;11.77;6.13;;;;;;;-144.30;64.31;85511.75;5091204;28;20653;-57
2023/10/14 02:52:08;;;;;;;10.43;6.37;;;;;;;-144.30;64.61;85515.72;5090901;28;20198;-59
2023/10/14 02:54:36;;;;;;;17.67;6.20;;;;;;;-144.30;65.00;85545.53;5091048;28;20195;-58
2023/10/14 02:57:12;;;;;;;10.43;6.40;;;;;;;-144.30;65.22;85543.53;5091002;28;20226;-57
2023/10/14 02:59:46;;;;;;;6.23;5.73;;;;;;;-144.30;65.13;85531.63;5078611;28;20198;-58
2023/10/14 03:02:24;;;;;;;16.37;6.47;;;;;;;-144.30;65.55;85527.63;5090157;28;20195;-57
2023/10/14 03:05:08;;;;;;;15.10;6.37;;;;;;;-144.30;65.81;85557.47;5090862;28;20195;-58
2023/10/14 03:07:45;;;;;;;12.03;6.23;;;;;;;-144.30;65.57;85531.63;5090761;28;20658;-56
2023/10/14 03:10:18;;;;;;;7.27;6.00;;;;;;;-144.30;65.64;85541.56;5090805;28;20210;-57
2023/10/14 03:12:49;;;;;;;11.10;6.70;;;;;;;-144.30;65.42;85525.66;5090950;28;20628;-57
2023/10/14 03:15:21;;;;;;;9.80;6.70;;;;;;;-144.30;65.83;85587.28;5090191;28;20203;-56
2023/10/14 03:17:55;;;;;;;11.13;7.23;;;;;;;-144.30;65.76;85535.59;5090792;28;20664;-57
2023/10/14 03:20:44;;;;;;;10.73;7.10;;;;;;;-144.30;65.82;85565.41;5090578;28;20201;-58
2023/10/14 03:23:18;;;;;;;11.17;6.87;;;;;;;-144.30;65.94;85573.38;5089742;28;20195;-56
2023/10/14 03:25:45;;;;;;;15.60;7.23;;;;;;;-144.30;65.98;85613.13;5089968;28;20195;-55
2023/10/14 03:28:14;;;;;;;16.33;7.47;;;;;;;-144.30;66.08;85553.47;5087303;28;20282;-56
2023/10/14 03:30:47;;;;;;;13.83;7.17;;;;;;;-144.30;66.13;85603.19;5088704;28;20227;-56
2023/10/14 03:33:19;;;;;;;12.07;6.97;;;;;;;-144.30;66.62;85583.31;5089550;28;20596;-56
2023/10/14 03:35:54;;;;;;;11.83;7.27;;;;;;;-144.30;66.60;85601.19;5090415;28;20552;-55
2023/10/14 03:38:33;;;;;;;10.83;6.27;;;;;;;-144.30;66.89;85553.47;5090154;28;20225;-56
2023/10/14 03:41:04;;;;;;;14.30;6.80;;;;;;;-144.30;66.81;85569.38;5090095;28;20206;-56
2023/10/14 03:43:34;;;;;;;8.97;5.93;;;;;;;-144.30;66.77;85571.38;5090696;28;20656;-58
2023/10/14 03:46:11;;;;;;;11.80;6.57;;;;;;;-144.30;66.54;85545.53;5089874;28;20372;-58
2023/10/14 03:48:45;;;;;;;11.47;6.23;;;;;;;-144.30;66.54;85599.22;5090273;28;20281;-56
2023/10/14 03:51:13;;;;;;;13.23;6.43;;;;;;;-144.30;66.65;85595.22;5090206;28;20202;-55
2023/10/14 03:53:40;;;;;;;9.27;6.60;;;;;;;-144.30;66.79;85579.31;5089127;28;20745;-54
2023/10/14 03:56:07;;;;;;;15.60;6.27;;;;;;;-144.30;67.20;85583.31;5087062;28;20199;-56
2023/10/14 03:58:36;;;;;;;10.20;6.30;;;;;;;-144.30;67.43;85573.38;5089129;28;20218;-57
2023/10/14 04:01:05;;;;;;;9.47;6.27;;;;;;;-144.30;67.82;85603.19;5090242;28;20264;-57
2023/10/14 04:03:40;;;;;;;11.77;5.90;;;;;;;-144.30;67.72;85601.19;5089983;28;20263;-56
2023/10/14 04:06:14;;;;;;;13.37;6.10;;;;;;;-144.30;67.29;85585.28;5089975;28;20191;-55
2023/10/14 04:08:47;;;;;;;13.03;6.37;;;;;;;-144.30;67.60;85595.22;5089367;28;20858;-55
2023/10/14 04:11:15;;;;;;;9.00;5.60;;;;;;;-144.30;67.54;85567.41;5089689;28;20734;-58
2023/10/14 04:13:51;;;;;;;8.03;5.67;;;;;;;-144.30;67.57;85603.19;5089884;28;20195;-55
2023/10/14 04:16:27;;;;;;;11.37;5.63;;;;;;;-144.30;67.37;85581.31;5084406;28;20271;-58
2023/10/14 04:19:22;;;;;;;9.87;6.03;;;;;;;-144.30;67.46;85591.25;5089543;28;20681;-58
2023/10/14 04:21:52;;;;;;;10.97;6.57;;;;;;;-144.30;67.31;85603.19;5089439;28;20650;-58
2023/10/14 04:24:27;;;;;;;7.03;5.37;;;;;;;-144.30;67.12;85585.28;5089049;28;20209;-56
2023/10/14 04:27:16;;;;;;;11.43;5.60;;;;;;;-144.30;66.84;85640.97;5089301;28;20199;-56
2023/10/14 04:29:51;;;;;;;8.40;5.53;;;;;;;-144.30;66.52;85591.25;5089615;28;20201;-56
2023/10/14 04:32:25;;;;;;;7.47;5.17;;;;;;;-144.30;66.20;85583.31;5090071;28;20217;-58
2023/10/14 04:34:54;;;;;;;5.77;5.10;;;;;;;-144.30;65.99;85535.59;5089906;28;20312;-58
2023/10/14 04:37:21;;;;;;;9.33;5.67;;;;;;;-144.30;65.64;85591.25;5084693;28;20602;-54
2023/10/14 04:39:58;;;;;;;9.23;6.07;;;;;;;-144.30;65.60;85543.53;5089519;28;20200;-56
2023/10/14 04:45:13;;;;;;;8.70;6.00;;;;;;;-144.30;65.27;85567.41;5087986;28;20199;-56
2023/10/14 04:47:47;;;;;;;8.43;6.03;;;;;;;-144.30;65.20;85583.31;5090353;28;20710;-55
2023/10/14 04:50:14;;;;;;;11.50;6.13;;;;;;;-144.30;64.89;85565.41;5093109;28;20187;-56
2023/10/14 04:52:48;;;;;;;12.50;6.23;;;;;;;-144.30;64.74;85585.28;5093270;28;20274;-55
2023/10/14 04:55:28;;;;;;;8.43;5.70;;;;;;;-144.30;64.55;85537.59;5093057;28;20725;-55
2023/10/14 04:58:23;;;;;;;7.30;5.83;;;;;;;-144.30;64.79;85549.50;5093399;28;20270;-55
2023/10/14 05:00:52;;;;;;;10.30;6.30;;;;;;;-144.30;64.40;85531.63;5093309;28;20214;-58
2023/10/14 05:03:22;;;;;;;6.00;5.27;;;;;;;-144.30;64.21;85529.63;5092591;28;20228;-55
2023/10/14 05:05:55;;;;;;;10.40;6.67;;;;;;;-144.30;63.76;85515.72;5091657;28;20671;-59
2023/10/14 05:08:24;;;;;;;13.00;6.40;;;;;;;-144.30;63.59;85539.56;5091865;28;20195;-56
2023/10/14 05:10:52;;;;;;;15.73;7.00;;;;;;;-144.30;63.59;85658.84;5092084;28;20199;-56
2023/10/14 05:13:25;;;;;;;10.17;6.20;;;;;;;-144.30;63.18;85493.84;5092279;28;20226;-55
2023/10/14 05:15:54;;;;;;;7.50;5.57;;;;;;;-144.30;61.18;85265.22;5093261;28;20659;-55
2023/10/14 05:18:28;;;;;;;7.97;5.97;;;;;;;-144.30;56.36;85197.66;5092237;28;20634;-55
2023/10/14 05:21:03;;;;;;;10.67;5.40;;;;;;;-144.30;53.20;85122.09;5092459;28;20199;-58
2023/10/14 05:23:31;;;;;;;8.87;6.07;;;;;;;-144.30;49.58;84980.97;5092877;28;20289;-58
2023/10/14 05:25:59;;;;;;;10.40;6.75;;;;;;;-144.30;46.48;84883.59;5092803;28;20195;-59
2023/10/14 05:28:31;;;;;;;6.30;5.63;;;;;;;-144.30;44.40;84750.41;5092755;28;20196;-58
2023/10/14 05:31:00;;;;;;;9.75;5.22;;;;;;;-144.30;42.88;84561.59;5092798;28;20729;-59
2023/10/14 05:33:31;;;;;;;7.47;5.93;;;;;;;-144.30;39.90;84223.75;5092625;28;20191;-60
2023/10/14 05:36:01;;;;;;;16.92;6.15;;;;;;;-144.30;36.99;84100.53;5092653;28;20196;-58
2023/10/14 05:38:28;;;;;;;7.55;6.07;;;;;;;-144.30;35.04;83923.69;5093003;28;20215;-59
2023/10/14 05:40:57;;;;;;;14.10;6.85;;;;;;;-144.30;33.92;83760.75;5092756;28;20584;-58
2023/10/14 05:43:24;;;;;;;14.93;7.72;;;;;;;-144.30;32.86;83611.72;5092602;28;20209;-59
2023/10/14 05:45:52;;;;;;;8.15;5.78;;;;;;;-144.30;31.72;83552.13;5092552;28;20199;-59
2023/10/14 05:48:26;;;;;;;13.82;6.05;;;;;;;-144.30;31.30;83488.53;5092577;28;20665;-59
2023/10/14 05:50:56;;;;;;;13.55;6.60;;;;;;;-144.30;30.84;83361.38;5092448;28;20206;-58
2023/10/14 05:53:24;;;;;;;23.15;6.90;;;;;;;-144.30;29.87;83214.38;5092507;28;20195;-59
2023/10/14 05:55:58;;;;;;;18.40;6.65;;;;;;;-144.30;28.98;83033.59;5092176;28;20206;-59
2023/10/14 05:58:28;;;;;;;13.23;6.95;;;;;;;-144.30;28.62;82868.69;5092213;28;20702;-59
2023/10/14 06:00:56;;;;;;;12.77;6.68;;;;;;;-144.30;27.66;82771.38;5092530;28;20291;-59
2023/10/14 06:03:23;;;;;;;8.68;6.40;;;;;;;-144.30;27.52;82681.97;5091947;28;20227;-59
2023/10/14 06:05:50;;;;;;;7.03;6.30;;;;;;;-144.30;27.02;82654.16;5086534;28;20208;-59
2023/10/14 06:08:18;;;;;;;8.75;6.38;;;;;;;-144.30;27.05;82598.56;5091458;28;20274;-58
2023/10/14 06:10:46;;;;;;;8.27;5.60;;;;;;;-144.30;26.63;82499.22;5090132;28;20206;-58
2023/10/14 06:13:15;;;;;;;14.73;6.18;;;;;;;-144.30;26.65;82439.66;5091313;28;20533;-59
2023/10/14 06:15:44;;;;;;;9.80;5.90;;;;;;;-144.30;26.14;82272.81;5091996;28;20286;-58
2023/10/14 06:18:13;;;;;;;9.93;6.18;;;;;;;-144.30;25.50;82088.09;5092023;28;20306;-58
2023/10/14 06:20:41;;;;;;;11.25;5.78;;;;;;;-144.30;24.96;81962.97;5090178;28;20198;-58
2023/10/14 06:23:08;;;;;;;6.95;5.50;;;;;;;-144.30;25.02;81945.09;5091494;28;20214;-58
2023/10/14 06:25:38;;;;;;;8.55;5.25;;;;;;;-144.30;24.87;81863.69;5091455;28;20627;-58
2023/10/14 06:28:07;;;;;;;8.68;6.15;;;;;;;-144.30;24.55;81732.63;5091699;28;20187;-59
2023/10/14 06:30:34;;;;;;;10.55;6.13;;;;;;;-144.30;24.19;81502.28;5091680;28;20198;-59
2023/10/14 06:33:04;;;;;;;11.55;6.07;;;;;;;-144.30;23.95;81559.84;5091546;28;20191;-60
2023/10/14 06:35:32;;;;;;;19.40;13.20;;;;;;;-144.30;23.70;81561.84;5091450;28;20567;-60
2023/10/14 06:37:59;;;;;;;25.75;7.47;;;;;;;-144.30;23.72;81682.97;5089843;28;20285;-59
2023/10/14 06:40:34;;;;;;;56.75;9.57;;;;;;;-144.30;24.15;81716.72;5090778;28;20206;-58
2023/10/14 06:43:06;;;;;;;13.52;6.20;;;;;;;-144.30;24.59;82012.63;5089263;28;20201;-59
2023/10/14 06:45:34;;;;;;;15.73;6.30;;;;;;;-144.30;25.44;82429.72;5086097;28;20202;-60
2023/10/14 06:48:03;;;;;;;18.88;12.52;;;;;;;-144.30;26.58;82777.31;5087879;28;20728;-59
2023/10/14 06:50:31;;;;;;;28.85;16.25;;;;;;;-144.30;28.07;83101.13;5088028;28;20188;-59
2023/10/14 06:53:00;;;;;;;9.23;6.88;;;;;;;-144.30;29.55;83417.00;5090134;28;20264;-59
2023/10/14 06:55:27;;;;;;;10.32;6.25;;;;;;;-144.30;30.97;83723.00;5089280;28;20191;-59
2023/10/14 06:57:55;;;;;;;17.77;7.85;;;;;;;-144.30;32.26;83822.34;5088324;28;20288;-58
2023/10/14 07:00:29;;;;;;;15.30;8.00;;;;;;;-144.30;33.22;83949.50;5091239;28;20261;-59
2023/10/14 07:02:59;;;;;;;9.73;6.97;;;;;;;-144.30;34.02;83997.22;5088980;28;20693;-59
2023/10/14 07:05:26;;;;;;;11.10;7.05;;;;;;;-144.30;34.86;84136.31;5091080;28;20195;-59
2023/10/14 07:07:53;;;;;;;11.02;6.50;;;;;;;-144.30;35.49;84158.16;5089701;28;20666;-59
2023/10/14 07:10:27;;;;;;;10.52;7.35;;;;;;;-144.30;35.89;84184.00;5090438;28;20201;-59
2023/10/14 07:12:57;;;;;;;11.68;7.05;;;;;;;-144.30;36.53;84269.47;5085378;28;20264;-59
2023/10/14 07:15:26;;;;;;;9.98;6.30;;;;;;;-144.30;37.41;84346.97;5090020;28;20211;-58
2023/10/14 07:17:54;;;;;;;8.95;6.53;;;;;;;-144.30;38.18;84372.78;5087932;28;20223;-57
2023/10/14 07:20:22;;;;;;;9.38;5.93;;;;;;;-144.30;37.98;84434.41;5089761;28;20199;-58
2023/10/14 07:22:49;;;;;;;7.88;5.97;;;;;;;-144.30;38.17;84382.72;5089725;28;20191;-59
2023/10/14 07:25:17;;;;;;;6.57;5.97;;;;;;;-144.30;38.47;84382.72;5089276;28;20282;-57
2023/10/14 07:27:44;;;;;;;6.70;5.60;;;;;;;-144.30;38.50;84442.34;5089724;28;20745;-57
2023/10/14 07:30:15;;;;;;;9.60;5.70;;;;;;;-144.30;39.02;84505.94;5088485;28;20199;-57
2023/10/14 07:32:45;;;;;;;10.20;8.55;;;;;;;-144.30;39.23;84468.19;5090126;28;20252;-57
2023/10/14 07:35:13;;;;;;;8.98;6.50;;;;;;;-144.30;39.58;84482.09;5090001;28;20282;-56
2023/10/14 07:37:46;;;;;;;18.30;7.70;;;;;;;-144.30;39.86;84523.84;5089509;28;20209;-58
2023/10/14 07:40:22;;;;;;;12.13;6.80;;;;;;;-144.30;40.40;84509.94;5089664;28;20213;-58
2023/10/14 07:42:53;;;;;;;13.88;7.35;;;;;;;-144.30;40.62;84492.03;5089726;28;20253;-58
2023/10/14 07:45:20;;;;;;;14.75;7.60;;;;;;;-144.30;40.45;84482.09;5088905;28;20256;-57
2023/10/14 07:47:49;;;;;;;16.73;7.03;;;;;;;-144.30;40.82;84545.69;5089030;28;20191;-58
2023/10/14 07:50:16;;;;;;;12.75;6.47;;;;;;;-144.30;40.76;84557.63;5090035;28;20610;-58
2023/10/14 07:52:44;;;;;;;20.83;7.05;;;;;;;-144.30;40.69;84549.69;5089944;28;20693;-59
2023/10/14 07:55:15;;;;;;;8.88;5.82;;;;;;;-144.30;40.78;84529.81;5089653;28;20578;-59
2023/10/14 07:57:46;;;;;;;6.50;5.88;;;;;;;-144.30;40.74;84561.59;5089985;28;20195;-57
2023/10/14 08:00:14;;;;;;;6.55;5.95;;;;;;;-144.30;40.71;84561.59;5089978;28;20221;-56
2023/10/14 08:02:41;;;;;;;8.77;5.72;;;;;;;-144.30;40.96;84557.63;5089932;28;20235;-54
2023/10/14 08:05:11;;;;;;;12.63;6.65;;;;;;;-144.30;40.72;84517.88;5089481;28;20278;-55
2023/10/14 08:07:41;;;;;;;17.05;6.40;;;;;;;-144.30;41.05;84531.78;5089836;28;20195;-56
2023/10/14 08:10:21;;;;;;;12.75;5.95;;;;;;;-144.30;41.09;84478.13;5088115;28;20195;-55
2023/10/14 08:12:50;;;;;;;11.63;6.05;;;;;;;-144.30;40.82;84527.81;5086529;28;20248;-56
2023/10/14 08:15:18;;;;;;;13.88;5.47;;;;;;;-144.30;40.81;84555.63;5089863;28;20199;-56
2023/10/14 08:17:48;;;;;;;7.50;5.88;;;;;;;-144.30;40.39;84523.84;5089938;28;20195;-56
2023/10/14 08:20:18;;;;;;;15.07;6.35;;;;;;;-144.30;40.55;84537.75;5091493;28;20684;-55
2023/10/14 08:22:47;;;;;;;11.65;5.80;;;;;;;-144.30;40.61;84509.94;5093302;28;20199;-58
2023/10/14 08:25:18;;;;;;;11.70;6.00;;;;;;;-144.30;40.56;84533.78;5092883;28;20201;-59
2023/10/14 08:27:46;;;;;;;7.28;5.97;;;;;;;-144.30;40.72;84549.69;5094271;28;20195;-55
2023/10/14 08:30:16;;;;;;;10.57;6.90;;;;;;;-144.30;40.62;84521.84;5094068;28;20274;-56
2023/10/14 08:32:44;;;;;;;16.63;6.75;;;;;;;-144.30;40.72;84458.25;5094024;28;20282;-55
2023/10/14 08:35:19;;;;;;;17.77;6.63;;;;;;;-144.30;40.96;84535.75;5094064;28;20199;-54
2023/10/14 08:37:49;;;;;;;7.90;6.38;;;;;;;-144.30;41.30;84535.75;5092787;28;20202;-54
2023/10/14 08:40:17;;;;;;;7.05;5.03;;;;;;;-144.30;40.86;84557.63;5093512;28;20628;-52
2023/10/14 08:42:52;;;;;;;11.52;5.18;;;;;;;-144.30;41.14;84561.59;5093556;28;20282;-54
2023/10/14 08:45:21;;;;;;;8.05;5.20;;;;;;;-144.30;43.53;84555.63;5093916;28;20194;-53
2023/10/14 08:47:52;;;;;;;8.88;5.72;;;;;;;-144.30;41.59;84531.78;5093678;28;20205;-53
2023/10/14 08:50:21;;;;;;;12.60;4.82;;;;;;;-144.30;41.47;84529.81;5093688;28;20195;-52
2023/10/14 08:52:51;;;;;;;10.20;5.80;;;;;;;-144.30;40.76;84533.78;5093204;28;20198;-51
2023/10/14 08:55:20;;;;;;;7.85;5.30;;;;;;;-144.30;40.22;84521.84;5093058;28;20214;-53
2023/10/14 08:57:48;;;;;;;5.50;5.00;;;;;;;-144.30;41.13;84533.78;5090644;28;20674;-56
2023/10/14 09:00:20;;;;;;;7.13;5.30;;;;;;;-144.30;39.78;84541.72;5093442;28;20225;-60
2023/10/14 09:02:51;;;;;;;8.18;5.10;;;;;;;-144.30;40.14;84511.91;5094043;28;20693;-58
2023/10/14 09:05:18;;;;;;;7.15;4.88;;;;;;;-144.30;41.29;84529.81;5094356;28;20203;-56
2023/10/14 09:07:49;;;;;;;8.73;4.95;;;;;;;-144.30;40.26;84511.91;5094147;28;20294;-60
2023/10/14 09:10:19;;;;;;;9.48;5.30;;;;;;;-144.30;39.56;84452.28;5082651;28;20204;-58
2023/10/14 09:13:00;;;;;;;12.38;5.80;;;;;;;-144.30;43.05;84531.78;5092439;28;20203;-57
2023/10/14 09:15:28;;;;;;;9.68;6.03;;;;;;;-144.30;39.80;84507.94;5093941;28;20651;-58
2023/10/14 09:17:56;;;;;;;9.07;5.50;;;;;;;-144.30;40.60;84484.09;5094006;28;20211;-55
2023/10/14 09:20:32;;;;;;;7.00;5.60;;;;;;;-144.30;41.19;84500.00;5093763;28;20273;-54
2023/10/14 09:23:17;;;;;;;7.72;5.30;;;;;;;-144.30;39.70;84368.81;5093738;28;20286;-56
2023/10/14 09:25:49;;;;;;;8.52;5.43;;;;;;;-144.30;39.34;84505.94;5093814;28;20290;-55
2023/10/14 09:28:19;;;;;;;5.75;5.15;;;;;;;-144.30;39.07;84486.06;5090991;28;20653;-59
2023/10/14 09:30:49;;;;;;;8.77;5.45;;;;;;;-144.30;39.43;84478.13;5092522;28;20196;-58
2023/10/14 09:33:19;;;;;;;11.90;5.00;;;;;;;-144.30;38.96;85024.72;5090451;28;20600;-58
2023/10/14 09:35:49;;;;;;;13.05;5.47;;;;;;;-144.30;39.01;84458.25;5093456;28;20188;-59
2023/10/14 09:38:19;;;;;;;14.52;5.55;;;;;;;-144.30;39.92;84442.34;5083883;28;20203;-60
2023/10/14 09:40:53;;;;;;;9.85;5.18;;;;;;;-144.30;38.55;84458.25;5092936;28;20243;-55
2023/10/14 09:43:23;;;;;;;8.88;5.22;;;;;;;-144.30;38.95;84452.28;5093045;28;20283;-58
2023/10/14 09:45:55;;;;;;;10.48;5.28;;;;;;;-144.30;38.59;84408.56;5092869;28;20795;-58
2023/10/14 09:48:25;;;;;;;11.80;5.78;;;;;;;-144.30;38.79;84428.44;5090482;28;20581;-59
2023/10/14 09:50:54;;;;;;;15.02;6.00;;;;;;;-144.30;38.01;84360.88;5089592;28;20207;-59
2023/10/14 09:53:26;;;;;;;9.65;5.07;;;;;;;-144.30;37.79;84400.63;5090977;28;20654;-61
2023/10/14 09:55:56;;;;;;;6.30;4.75;;;;;;;-144.30;37.82;84418.50;5091209;28;20223;-59
2023/10/14 09:58:24;;;;;;;8.15;4.57;;;;;;;-144.30;38.11;84384.72;5091901;28;20214;-58
2023/10/14 10:00:51;;;;;;;7.50;4.55;;;;;;;-144.30;38.34;84346.97;5092907;28;20259;-59
2023/10/14 10:03:21;;;;;;;7.47;4.85;;;;;;;-144.30;38.56;84372.78;5092095;28;20227;-57
2023/10/14 10:06:05;;;;;;;6.78;4.85;;;;;;;-144.30;37.44;84366.84;5092712;28;20256;-56
2023/10/14 10:09:04;;;;;;;7.25;4.88;;;;;;;-144.30;37.49;84358.88;5089864;28;20191;-57
2023/10/14 10:11:36;;;;;;;4.95;4.38;;;;;;;-144.30;37.88;84362.84;5089605;28;20184;-57
2023/10/14 10:14:10;;;;;;;8.68;5.07;;;;;;;-144.30;37.71;84174.06;5091885;28;20207;-56
2023/10/14 10:16:37;;;;;;;8.48;4.78;;;;;;;-144.30;38.13;84319.13;5092391;28;20229;-57
2023/10/14 10:19:05;;;;;;;7.13;4.68;;;;;;;-144.30;37.68;84339.00;5092187;28;20283;-57
2023/10/14 10:21:34;;;;;;;8.45;5.07;;;;;;;-144.30;37.50;84295.28;5092490;28;20195;-56
2023/10/14 10:24:16;;;;;;;10.30;6.03;;;;;;;-144.30;37.98;84249.59;5092590;28;20195;-57
2023/10/14 10:29:48;;;;;;;22.13;6.88;;;;;;;-144.30;37.14;84277.41;5086673;28;20571;-57
2023/10/14 10:32:19;;;;;;;11.50;6.93;;;;;;;-144.30;37.19;84223.75;5078407;28;20198;-57
2023/10/14 10:35:16;;;;;;;8.48;6.22;;;;;;;-144.30;37.08;84237.66;5086570;28;20255;-56
2023/10/14 10:37:49;;;;;;;11.05;5.93;;;;;;;-144.30;36.84;84219.78;5087385;28;20207;-55
2023/10/14 10:40:22;;;;;;;8.73;5.32;;;;;;;-144.30;37.55;84215.78;5087908;28;20679;-56
2023/10/14 10:42:53;;;;;;;15.93;5.15;;;;;;;-144.30;36.93;84227.72;5081175;28;20206;-60
2023/10/14 10:45:23;;;;;;;12.30;7.07;;;;;;;-144.30;36.78;84472.16;5077264;28;20565;-57
2023/10/14 10:47:56;;;;;;;9.63;5.75;;;;;;;-144.30;36.77;84189.97;5047325;28;20290;-58
2023/10/14 10:50:26;;;;;;;9.73;6.35;;;;;;;-144.30;36.89;84195.94;5047162;28;20220;-57
2023/10/14 10:52:55;;;;;;;9.38;4.95;;;;;;;-144.30;36.85;84193.94;5047230;28;20287;-58
2023/10/14 10:55:24;;;;;;;17.20;6.45;;;;;;;-144.30;36.99;84184.00;5047610;28;20634;-58
2023/10/14 10:58:00;;;;;;;17.75;7.28;;;;;;;-144.30;37.02;84170.09;5046793;28;20201;-57
2023/10/14 11:00:31;;;;;;;17.33;7.55;;;;;;;-144.30;37.13;84136.31;5047492;28;20204;-58
2023/10/14 11:02:58;;;;;;;11.18;5.40;;;;;;;-144.30;36.75;84166.13;5047294;28;20200;-58
2023/10/14 11:05:26;;;;;;;9.52;4.65;;;;;;;-144.30;36.50;84174.06;5047540;28;20207;-57
2023/10/14 11:07:53;;;;;;;9.32;5.15;;;;;;;-144.30;37.08;84154.19;5047084;28;20230;-57
2023/10/14 11:10:25;;;;;;;11.55;5.60;;;;;;;-144.30;36.47;84146.25;5047314;28;20776;-57
2023/10/14 11:12:54;;;;;;;16.33;5.30;;;;;;;-144.30;36.63;84162.16;5068199;28;20207;-57
2023/10/14 11:15:22;;;;;;;8.90;5.55;;;;;;;-144.30;37.06;84098.56;5086698;28;20298;-56
2023/10/14 11:17:56;;;;;;;8.25;5.28;;;;;;;-144.30;37.15;84142.28;5067580;28;20299;-57
2023/10/14 11:20:26;;;;;;;12.52;5.28;;;;;;;-144.30;36.26;84152.22;5045546;28;20592;-57
2023/10/14 11:22:55;;;;;;;11.02;5.43;;;;;;;-144.30;37.37;84142.28;5045670;28;20203;-57
2023/10/14 11:25:22;;;;;;;9.50;5.45;;;;;;;-144.30;38.73;84144.25;5046343;28;20212;-57
2023/10/14 11:27:49;;;;;;;8.63;5.47;;;;;;;-144.30;36.27;84090.59;5045839;28;20240;-58
2023/10/14 11:30:17;;;;;;;14.02;5.20;;;;;;;-144.30;37.11;84112.47;5046571;28;20575;-57
2023/10/14 11:32:48;;;;;;;8.13;5.07;;;;;;;-144.30;36.34;84126.38;5046225;28;20205;-57
2023/10/14 11:35:18;;;;;;;9.23;5.55;;;;;;;-144.30;35.79;84092.59;5046544;28;20292;-57